sensor_id;sensor_type;location;lat;lon;timestamp;temperature;humidity
66928;DHT22;59882;45.624;11.698;2023-08-30T00:00:37;18.10;84.40
66928;DHT22;59882;45.624;11.698;2023-08-30T00:03:02;18.10;84.30
66928;DHT22;59882;45.624;11.698;2023-08-30T00:05:28;18.00;84.50
66928;DHT22;59882;45.624;11.698;2023-08-30T00:07:54;18.00;84.50
66928;DHT22;59882;45.624;11.698;2023-08-30T00:10:20;17.90;84.60
66928;DHT22;59882;45.624;11.698;2023-08-30T00:12:45;17.90;84.50
66928;DHT22;59882;45.624;11.698;2023-08-30T00:15:11;17.90;84.30
66928;DHT22;59882;45.624;11.698;2023-08-30T00:17:36;17.90;84.40
66928;DHT22;59882;45.624;11.698;2023-08-30T00:20:02;17.90;84.30
66928;DHT22;59882;45.624;11.698;2023-08-30T00:22:28;17.90;84.10
66928;DHT22;59882;45.624;11.698;2023-08-30T00:24:54;17.90;84.20
66928;DHT22;59882;45.624;11.698;2023-08-30T00:27:20;17.90;84.30
66928;DHT22;59882;45.624;11.698;2023-08-30T00:29:48;18.00;84.10
66928;DHT22;59882;45.624;11.698;2023-08-30T00:32:13;18.00;84.10
66928;DHT22;59882;45.624;11.698;2023-08-30T00:34:39;18.10;84.00
66928;DHT22;59882;45.624;11.698;2023-08-30T00:37:05;18.10;84.10
66928;DHT22;59882;45.624;11.698;2023-08-30T00:39:30;18.20;84.20
66928;DHT22;59882;45.624;11.698;2023-08-30T00:41:56;18.30;84.10
66928;DHT22;59882;45.624;11.698;2023-08-30T00:44:21;18.30;84.00
66928;DHT22;59882;45.624;11.698;2023-08-30T00:46:47;18.40;83.90
66928;DHT22;59882;45.624;11.698;2023-08-30T00:49:14;18.40;83.80
66928;DHT22;59882;45.624;11.698;2023-08-30T00:51:39;18.40;83.80
66928;DHT22;59882;45.624;11.698;2023-08-30T00:54:06;18.40;83.80
66928;DHT22;59882;45.624;11.698;2023-08-30T00:56:32;18.40;83.90
66928;DHT22;59882;45.624;11.698;2023-08-30T00:58:58;18.40;83.90
66928;DHT22;59882;45.624;11.698;2023-08-30T01:01:26;18.40;83.80
66928;DHT22;59882;45.624;11.698;2023-08-30T01:03:51;18.50;83.70
66928;DHT22;59882;45.624;11.698;2023-08-30T01:06:17;18.50;83.30
66928;DHT22;59882;45.624;11.698;2023-08-30T01:08:43;18.50;83.40
66928;DHT22;59882;45.624;11.698;2023-08-30T01:11:26;18.40;83.30
66928;DHT22;59882;45.624;11.698;2023-08-30T01:16:29;18.40;83.20
66928;DHT22;59882;45.624;11.698;2023-08-30T01:18:56;18.40;83.30
66928;DHT22;59882;45.624;11.698;2023-08-30T01:21:38;18.40;83.30
66928;DHT22;59882;45.624;11.698;2023-08-30T01:24:10;18.50;83.20
66928;DHT22;59882;45.624;11.698;2023-08-30T01:29:49;18.60;83.10
66928;DHT22;59882;45.624;11.698;2023-08-30T01:32:16;18.60;83.20
66928;DHT22;59882;45.624;11.698;2023-08-30T01:34:42;18.60;83.20
66928;DHT22;59882;45.624;11.698;2023-08-30T01:37:09;18.60;83.20
66928;DHT22;59882;45.624;11.698;2023-08-30T01:39:36;18.60;83.10
66928;DHT22;59882;45.624;11.698;2023-08-30T01:42:04;18.60;83.40
66928;DHT22;59882;45.624;11.698;2023-08-30T01:44:30;18.60;83.40
66928;DHT22;59882;45.624;11.698;2023-08-30T01:47:00;18.60;83.40
66928;DHT22;59882;45.624;11.698;2023-08-30T01:49:28;18.60;83.20
66928;DHT22;59882;45.624;11.698;2023-08-30T01:51:57;18.70;83.20
66928;DHT22;59882;45.624;11.698;2023-08-30T01:54:23;18.70;83.40
66928;DHT22;59882;45.624;11.698;2023-08-30T01:56:49;18.70;83.40
66928;DHT22;59882;45.624;11.698;2023-08-30T01:59:15;18.70;83.40
66928;DHT22;59882;45.624;11.698;2023-08-30T02:01:41;18.70;83.40
66928;DHT22;59882;45.624;11.698;2023-08-30T02:04:06;18.70;83.40
66928;DHT22;59882;45.624;11.698;2023-08-30T02:06:38;18.70;83.50
66928;DHT22;59882;45.624;11.698;2023-08-30T02:09:14;18.70;83.50
66928;DHT22;59882;45.624;11.698;2023-08-30T02:11:44;18.70;83.60
66928;DHT22;59882;45.624;11.698;2023-08-30T02:14:12;18.70;83.50
66928;DHT22;59882;45.624;11.698;2023-08-30T02:16:42;18.70;83.50
66928;DHT22;59882;45.624;11.698;2023-08-30T02:19:08;18.70;83.60
66928;DHT22;59882;45.624;11.698;2023-08-30T02:21:34;18.60;83.60
66928;DHT22;59882;45.624;11.698;2023-08-30T02:23:59;18.60;83.60
66928;DHT22;59882;45.624;11.698;2023-08-30T02:26:25;18.60;83.50
66928;DHT22;59882;45.624;11.698;2023-08-30T02:28:50;18.60;83.60
66928;DHT22;59882;45.624;11.698;2023-08-30T02:31:16;18.60;83.70
66928;DHT22;59882;45.624;11.698;2023-08-30T02:33:42;18.60;83.80
66928;DHT22;59882;45.624;11.698;2023-08-30T02:36:07;18.60;83.70
66928;DHT22;59882;45.624;11.698;2023-08-30T02:38:33;18.50;83.60
66928;DHT22;59882;45.624;11.698;2023-08-30T02:40:59;18.50;83.70
66928;DHT22;59882;45.624;11.698;2023-08-30T02:43:24;18.50;83.70
66928;DHT22;59882;45.624;11.698;2023-08-30T02:45:50;18.50;83.90
66928;DHT22;59882;45.624;11.698;2023-08-30T02:48:17;18.40;83.80
66928;DHT22;59882;45.624;11.698;2023-08-30T02:50:43;18.40;83.90
66928;DHT22;59882;45.624;11.698;2023-08-30T02:53:08;18.40;84.00
66928;DHT22;59882;45.624;11.698;2023-08-30T02:55:35;18.40;83.90
66928;DHT22;59882;45.624;11.698;2023-08-30T02:58:00;18.50;84.10
66928;DHT22;59882;45.624;11.698;2023-08-30T03:00:26;18.50;84.10
66928;DHT22;59882;45.624;11.698;2023-08-30T03:02:51;18.40;84.10
66928;DHT22;59882;45.624;11.698;2023-08-30T03:05:18;18.50;84.10
66928;DHT22;59882;45.624;11.698;2023-08-30T03:07:44;18.50;84.10
66928;DHT22;59882;45.624;11.698;2023-08-30T03:10:11;18.40;84.20
66928;DHT22;59882;45.624;11.698;2023-08-30T03:12:36;18.40;84.30
66928;DHT22;59882;45.624;11.698;2023-08-30T03:15:02;18.40;84.40
66928;DHT22;59882;45.624;11.698;2023-08-30T03:17:29;18.50;84.50
66928;DHT22;59882;45.624;11.698;2023-08-30T03:19:55;18.50;84.40
66928;DHT22;59882;45.624;11.698;2023-08-30T03:22:21;18.50;84.20
66928;DHT22;59882;45.624;11.698;2023-08-30T03:24:46;18.50;84.40
66928;DHT22;59882;45.624;11.698;2023-08-30T03:27:12;18.50;84.40
66928;DHT22;59882;45.624;11.698;2023-08-30T03:29:38;18.50;84.50
66928;DHT22;59882;45.624;11.698;2023-08-30T03:32:04;18.50;84.50
66928;DHT22;59882;45.624;11.698;2023-08-30T03:34:30;18.50;84.40
66928;DHT22;59882;45.624;11.698;2023-08-30T03:36:55;18.40;84.50
66928;DHT22;59882;45.624;11.698;2023-08-30T03:39:21;18.40;84.40
66928;DHT22;59882;45.624;11.698;2023-08-30T03:41:47;18.40;84.50
66928;DHT22;59882;45.624;11.698;2023-08-30T03:44:12;18.40;84.40
66928;DHT22;59882;45.624;11.698;2023-08-30T03:46:38;18.40;84.60
66928;DHT22;59882;45.624;11.698;2023-08-30T03:49:04;18.40;84.60
66928;DHT22;59882;45.624;11.698;2023-08-30T03:51:30;18.40;84.60
66928;DHT22;59882;45.624;11.698;2023-08-30T03:53:55;18.40;84.70
66928;DHT22;59882;45.624;11.698;2023-08-30T03:56:24;18.50;84.60
66928;DHT22;59882;45.624;11.698;2023-08-30T03:58:49;18.40;84.50
66928;DHT22;59882;45.624;11.698;2023-08-30T04:01:15;18.50;84.50
66928;DHT22;59882;45.624;11.698;2023-08-30T04:03:41;18.50;84.60
66928;DHT22;59882;45.624;11.698;2023-08-30T04:06:06;18.40;84.60
66928;DHT22;59882;45.624;11.698;2023-08-30T04:08:32;18.40;84.50
66928;DHT22;59882;45.624;11.698;2023-08-30T04:10:58;18.50;84.60
66928;DHT22;59882;45.624;11.698;2023-08-30T04:13:24;18.40;84.50
66928;DHT22;59882;45.624;11.698;2023-08-30T04:15:51;18.40;84.40
66928;DHT22;59882;45.624;11.698;2023-08-30T04:18:17;18.40;84.30
66928;DHT22;59882;45.624;11.698;2023-08-30T04:20:46;18.40;84.30
66928;DHT22;59882;45.624;11.698;2023-08-30T04:23:12;18.40;84.20
66928;DHT22;59882;45.624;11.698;2023-08-30T04:25:38;18.40;84.30
66928;DHT22;59882;45.624;11.698;2023-08-30T04:28:04;18.40;84.20
66928;DHT22;59882;45.624;11.698;2023-08-30T04:30:30;18.40;84.30
66928;DHT22;59882;45.624;11.698;2023-08-30T04:32:55;18.30;84.30
66928;DHT22;59882;45.624;11.698;2023-08-30T04:35:21;18.30;84.30
66928;DHT22;59882;45.624;11.698;2023-08-30T04:37:47;18.30;84.40
66928;DHT22;59882;45.624;11.698;2023-08-30T04:40:14;18.30;84.40
66928;DHT22;59882;45.624;11.698;2023-08-30T04:42:39;18.20;84.40
66928;DHT22;59882;45.624;11.698;2023-08-30T04:45:06;18.20;84.50
66928;DHT22;59882;45.624;11.698;2023-08-30T04:47:32;18.30;84.50
66928;DHT22;59882;45.624;11.698;2023-08-30T04:49:58;18.30;84.50
66928;DHT22;59882;45.624;11.698;2023-08-30T04:52:24;18.20;84.70
66928;DHT22;59882;45.624;11.698;2023-08-30T04:54:49;18.30;84.60
66928;DHT22;59882;45.624;11.698;2023-08-30T04:57:16;18.20;84.50
66928;DHT22;59882;45.624;11.698;2023-08-30T04:59:43;18.30;84.50
66928;DHT22;59882;45.624;11.698;2023-08-30T05:02:09;18.30;84.50
66928;DHT22;59882;45.624;11.698;2023-08-30T05:04:35;18.30;84.60
66928;DHT22;59882;45.624;11.698;2023-08-30T05:07:01;18.30;84.70
66928;DHT22;59882;45.624;11.698;2023-08-30T05:09:27;18.20;84.80
66928;DHT22;59882;45.624;11.698;2023-08-30T05:11:53;18.20;84.80
66928;DHT22;59882;45.624;11.698;2023-08-30T05:14:19;18.30;84.80
66928;DHT22;59882;45.624;11.698;2023-08-30T05:16:45;18.30;84.90
66928;DHT22;59882;45.624;11.698;2023-08-30T05:19:11;18.30;84.90
66928;DHT22;59882;45.624;11.698;2023-08-30T05:21:37;18.30;85.00
66928;DHT22;59882;45.624;11.698;2023-08-30T05:24:03;18.30;85.10
66928;DHT22;59882;45.624;11.698;2023-08-30T05:26:28;18.40;85.00
66928;DHT22;59882;45.624;11.698;2023-08-30T05:28:54;18.40;84.90
66928;DHT22;59882;45.624;11.698;2023-08-30T05:31:19;18.40;85.00
66928;DHT22;59882;45.624;11.698;2023-08-30T05:33:45;18.40;85.10
66928;DHT22;59882;45.624;11.698;2023-08-30T05:36:11;18.40;84.90
66928;DHT22;59882;45.624;11.698;2023-08-30T05:38:36;18.50;84.90
66928;DHT22;59882;45.624;11.698;2023-08-30T05:41:02;18.50;84.80
66928;DHT22;59882;45.624;11.698;2023-08-30T05:43:27;18.50;84.80
66928;DHT22;59882;45.624;11.698;2023-08-30T05:45:53;18.50;84.60
66928;DHT22;59882;45.624;11.698;2023-08-30T05:48:18;18.50;84.60
66928;DHT22;59882;45.624;11.698;2023-08-30T05:50:44;18.50;84.90
66928;DHT22;59882;45.624;11.698;2023-08-30T05:53:11;18.60;84.70
66928;DHT22;59882;45.624;11.698;2023-08-30T05:55:36;18.60;84.90
66928;DHT22;59882;45.624;11.698;2023-08-30T05:58:03;18.60;84.80
66928;DHT22;59882;45.624;11.698;2023-08-30T06:00:28;18.60;84.90
66928;DHT22;59882;45.624;11.698;2023-08-30T06:02:54;18.60;85.00
66928;DHT22;59882;45.624;11.698;2023-08-30T06:05:19;18.70;84.80
66928;DHT22;59882;45.624;11.698;2023-08-30T06:07:45;18.60;84.80
66928;DHT22;59882;45.624;11.698;2023-08-30T06:10:12;18.60;84.90
66928;DHT22;59882;45.624;11.698;2023-08-30T06:12:37;18.60;85.10
66928;DHT22;59882;45.624;11.698;2023-08-30T06:15:03;18.60;85.20
66928;DHT22;59882;45.624;11.698;2023-08-30T06:17:29;18.60;85.10
66928;DHT22;59882;45.624;11.698;2023-08-30T06:19:54;18.70;85.30
66928;DHT22;59882;45.624;11.698;2023-08-30T06:22:20;18.70;85.20
66928;DHT22;59882;45.624;11.698;2023-08-30T06:24:46;18.70;85.20
66928;DHT22;59882;45.624;11.698;2023-08-30T06:27:12;18.80;85.10
66928;DHT22;59882;45.624;11.698;2023-08-30T06:29:37;18.80;85.10
66928;DHT22;59882;45.624;11.698;2023-08-30T06:32:03;18.90;85.10
66928;DHT22;59882;45.624;11.698;2023-08-30T06:34:29;18.90;85.20
66928;DHT22;59882;45.624;11.698;2023-08-30T06:36:55;18.90;85.20
66928;DHT22;59882;45.624;11.698;2023-08-30T06:39:20;19.00;84.90
66928;DHT22;59882;45.624;11.698;2023-08-30T06:41:46;19.00;84.60
66928;DHT22;59882;45.624;11.698;2023-08-30T06:44:11;19.10;84.60
66928;DHT22;59882;45.624;11.698;2023-08-30T06:46:37;19.00;84.50
66928;DHT22;59882;45.624;11.698;2023-08-30T06:49:03;19.10;84.80
66928;DHT22;59882;45.624;11.698;2023-08-30T06:51:29;19.20;84.70
66928;DHT22;59882;45.624;11.698;2023-08-30T06:53:54;19.20;84.50
66928;DHT22;59882;45.624;11.698;2023-08-30T06:56:22;19.20;84.30
66928;DHT22;59882;45.624;11.698;2023-08-30T06:58:48;19.30;84.30
66928;DHT22;59882;45.624;11.698;2023-08-30T07:01:13;19.30;83.90
66928;DHT22;59882;45.624;11.698;2023-08-30T07:03:39;19.30;83.80
66928;DHT22;59882;45.624;11.698;2023-08-30T07:06:05;19.30;84.00
66928;DHT22;59882;45.624;11.698;2023-08-30T07:08:31;19.40;83.80
66928;DHT22;59882;45.624;11.698;2023-08-30T07:10:57;19.40;83.80
66928;DHT22;59882;45.624;11.698;2023-08-30T07:13:23;19.40;83.50
66928;DHT22;59882;45.624;11.698;2023-08-30T07:15:49;19.40;83.70
66928;DHT22;59882;45.624;11.698;2023-08-30T07:18:14;19.50;83.50
66928;DHT22;59882;45.624;11.698;2023-08-30T07:20:40;19.50;83.30
66928;DHT22;59882;45.624;11.698;2023-08-30T07:23:06;19.50;83.40
66928;DHT22;59882;45.624;11.698;2023-08-30T07:25:31;19.60;83.70
66928;DHT22;59882;45.624;11.698;2023-08-30T07:28:02;19.60;83.50
66928;DHT22;59882;45.624;11.698;2023-08-30T07:30:28;19.60;83.30
66928;DHT22;59882;45.624;11.698;2023-08-30T07:32:55;19.70;83.40
66928;DHT22;59882;45.624;11.698;2023-08-30T07:35:20;19.70;83.40
66928;DHT22;59882;45.624;11.698;2023-08-30T07:37:47;19.80;83.00
66928;DHT22;59882;45.624;11.698;2023-08-30T07:40:12;19.80;83.00
66928;DHT22;59882;45.624;11.698;2023-08-30T07:42:38;19.80;83.10
66928;DHT22;59882;45.624;11.698;2023-08-30T07:45:04;19.80;83.00
66928;DHT22;59882;45.624;11.698;2023-08-30T07:47:30;19.90;82.80
66928;DHT22;59882;45.624;11.698;2023-08-30T07:49:56;19.90;82.50
66928;DHT22;59882;45.624;11.698;2023-08-30T07:52:21;19.90;82.00
66928;DHT22;59882;45.624;11.698;2023-08-30T07:54:47;19.90;82.00
66928;DHT22;59882;45.624;11.698;2023-08-30T07:57:13;19.90;81.90
66928;DHT22;59882;45.624;11.698;2023-08-30T07:59:38;20.00;81.90
66928;DHT22;59882;45.624;11.698;2023-08-30T08:02:05;20.00;81.90
66928;DHT22;59882;45.624;11.698;2023-08-30T08:04:36;20.10;81.80
66928;DHT22;59882;45.624;11.698;2023-08-30T08:07:02;20.10;82.00
66928;DHT22;59882;45.624;11.698;2023-08-30T08:09:28;20.20;81.90
66928;DHT22;59882;45.624;11.698;2023-08-30T08:11:54;20.20;81.40
66928;DHT22;59882;45.624;11.698;2023-08-30T08:14:22;20.30;81.30
66928;DHT22;59882;45.624;11.698;2023-08-30T08:16:48;20.30;81.40
66928;DHT22;59882;45.624;11.698;2023-08-30T08:19:13;20.40;81.50
66928;DHT22;59882;45.624;11.698;2023-08-30T08:21:39;20.40;81.40
66928;DHT22;59882;45.624;11.698;2023-08-30T08:24:05;20.50;81.60
66928;DHT22;59882;45.624;11.698;2023-08-30T08:26:30;20.50;82.20
66928;DHT22;59882;45.624;11.698;2023-08-30T08:28:56;20.60;81.70
66928;DHT22;59882;45.624;11.698;2023-08-30T08:31:22;20.70;81.90
66928;DHT22;59882;45.624;11.698;2023-08-30T08:34:06;20.70;81.30
66928;DHT22;59882;45.624;11.698;2023-08-30T08:36:32;20.80;81.20
66928;DHT22;59882;45.624;11.698;2023-08-30T08:38:58;20.90;80.70
66928;DHT22;59882;45.624;11.698;2023-08-30T08:41:26;20.90;80.30
66928;DHT22;59882;45.624;11.698;2023-08-30T08:43:57;21.00;80.20
66928;DHT22;59882;45.624;11.698;2023-08-30T08:46:23;21.00;79.70
66928;DHT22;59882;45.624;11.698;2023-08-30T08:48:50;21.10;78.60
66928;DHT22;59882;45.624;11.698;2023-08-30T08:51:16;21.20;77.30
66928;DHT22;59882;45.624;11.698;2023-08-30T08:53:43;21.20;78.10
66928;DHT22;59882;45.624;11.698;2023-08-30T08:56:09;21.20;76.60
66928;DHT22;59882;45.624;11.698;2023-08-30T08:58:36;21.20;76.20
66928;DHT22;59882;45.624;11.698;2023-08-30T09:01:03;21.20;75.60
66928;DHT22;59882;45.624;11.698;2023-08-30T09:03:29;21.20;76.60
66928;DHT22;59882;45.624;11.698;2023-08-30T09:05:55;21.20;76.80
66928;DHT22;59882;45.624;11.698;2023-08-30T09:08:21;21.30;76.80
66928;DHT22;59882;45.624;11.698;2023-08-30T09:10:47;21.30;76.80
66928;DHT22;59882;45.624;11.698;2023-08-30T09:13:16;21.40;77.10
66928;DHT22;59882;45.624;11.698;2023-08-30T09:15:41;21.50;76.40
66928;DHT22;59882;45.624;11.698;2023-08-30T09:18:19;21.50;75.90
66928;DHT22;59882;45.624;11.698;2023-08-30T09:20:45;21.60;74.70
66928;DHT22;59882;45.624;11.698;2023-08-30T09:23:18;21.60;72.90
66928;DHT22;59882;45.624;11.698;2023-08-30T09:25:44;21.60;73.30
66928;DHT22;59882;45.624;11.698;2023-08-30T09:28:10;21.60;72.80
66928;DHT22;59882;45.624;11.698;2023-08-30T09:30:36;21.60;72.50
66928;DHT22;59882;45.624;11.698;2023-08-30T09:33:02;21.60;69.40
66928;DHT22;59882;45.624;11.698;2023-08-30T09:35:28;21.50;69.30
66928;DHT22;59882;45.624;11.698;2023-08-30T09:37:53;21.50;70.50
66928;DHT22;59882;45.624;11.698;2023-08-30T09:40:19;21.40;71.20
66928;DHT22;59882;45.624;11.698;2023-08-30T09:42:47;21.40;72.20
66928;DHT22;59882;45.624;11.698;2023-08-30T09:45:21;21.40;72.20
66928;DHT22;59882;45.624;11.698;2023-08-30T09:47:51;21.40;72.40
66928;DHT22;59882;45.624;11.698;2023-08-30T09:50:20;21.40;72.60
66928;DHT22;59882;45.624;11.698;2023-08-30T09:52:49;21.50;72.60
66928;DHT22;59882;45.624;11.698;2023-08-30T09:55:16;21.50;73.50
66928;DHT22;59882;45.624;11.698;2023-08-30T09:57:43;21.50;74.10
66928;DHT22;59882;45.624;11.698;2023-08-30T10:00:10;21.70;74.80
66928;DHT22;59882;45.624;11.698;2023-08-30T10:02:39;21.70;74.70
66928;DHT22;59882;45.624;11.698;2023-08-30T10:05:08;21.80;74.30
66928;DHT22;59882;45.624;11.698;2023-08-30T10:07:35;21.90;74.30
66928;DHT22;59882;45.624;11.698;2023-08-30T10:10:03;21.90;73.70
66928;DHT22;59882;45.624;11.698;2023-08-30T10:12:32;22.00;72.20
66928;DHT22;59882;45.624;11.698;2023-08-30T10:14:58;22.10;72.50
66928;DHT22;59882;45.624;11.698;2023-08-30T10:17:27;22.20;69.20
66928;DHT22;59882;45.624;11.698;2023-08-30T10:19:55;22.30;67.90
66928;DHT22;59882;45.624;11.698;2023-08-30T10:22:23;22.30;69.30
66928;DHT22;59882;45.624;11.698;2023-08-30T10:25:00;22.40;69.20
66928;DHT22;59882;45.624;11.698;2023-08-30T10:27:27;22.30;68.20
66928;DHT22;59882;45.624;11.698;2023-08-30T10:29:54;22.10;66.80
66928;DHT22;59882;45.624;11.698;2023-08-30T10:32:21;22.00;66.50
66928;DHT22;59882;45.624;11.698;2023-08-30T10:34:49;22.00;66.70
66928;DHT22;59882;45.624;11.698;2023-08-30T10:37:15;22.00;67.10
66928;DHT22;59882;45.624;11.698;2023-08-30T10:39:41;22.00;67.20
66928;DHT22;59882;45.624;11.698;2023-08-30T10:42:15;22.10;66.70
66928;DHT22;59882;45.624;11.698;2023-08-30T10:44:51;22.20;66.60
66928;DHT22;59882;45.624;11.698;2023-08-30T10:49:49;22.30;66.70
66928;DHT22;59882;45.624;11.698;2023-08-30T10:52:14;22.40;64.80
66928;DHT22;59882;45.624;11.698;2023-08-30T10:54:40;22.40;63.80
66928;DHT22;59882;45.624;11.698;2023-08-30T10:57:13;22.40;64.10
66928;DHT22;59882;45.624;11.698;2023-08-30T10:59:38;22.50;64.30
66928;DHT22;59882;45.624;11.698;2023-08-30T11:02:05;22.60;64.50
66928;DHT22;59882;45.624;11.698;2023-08-30T11:04:31;22.70;62.30
66928;DHT22;59882;45.624;11.698;2023-08-30T11:06:57;22.80;64.90
66928;DHT22;59882;45.624;11.698;2023-08-30T11:09:24;22.90;63.50
66928;DHT22;59882;45.624;11.698;2023-08-30T11:11:51;23.00;64.40
66928;DHT22;59882;45.624;11.698;2023-08-30T11:14:18;23.10;64.20
66928;DHT22;59882;45.624;11.698;2023-08-30T11:16:44;23.20;63.90
66928;DHT22;59882;45.624;11.698;2023-08-30T11:19:10;23.30;62.60
66928;DHT22;59882;45.624;11.698;2023-08-30T11:21:42;23.40;58.90
66928;DHT22;59882;45.624;11.698;2023-08-30T11:24:09;23.30;61.20
66928;DHT22;59882;45.624;11.698;2023-08-30T11:26:35;23.30;58.90
66928;DHT22;59882;45.624;11.698;2023-08-30T11:29:07;23.30;60.20
66928;DHT22;59882;45.624;11.698;2023-08-30T11:31:33;23.40;59.10
66928;DHT22;59882;45.624;11.698;2023-08-30T11:33:59;23.40;59.70
66928;DHT22;59882;45.624;11.698;2023-08-30T11:36:30;23.50;59.20
66928;DHT22;59882;45.624;11.698;2023-08-30T11:38:57;23.60;61.20
66928;DHT22;59882;45.624;11.698;2023-08-30T11:41:24;23.70;58.90
66928;DHT22;59882;45.624;11.698;2023-08-30T11:43:51;23.80;59.50
66928;DHT22;59882;45.624;11.698;2023-08-30T11:46:17;23.90;58.50
66928;DHT22;59882;45.624;11.698;2023-08-30T11:48:44;24.00;58.00
66928;DHT22;59882;45.624;11.698;2023-08-30T11:51:11;24.20;54.60
66928;DHT22;59882;45.624;11.698;2023-08-30T11:53:38;24.30;53.50
66928;DHT22;59882;45.624;11.698;2023-08-30T11:56:05;24.40;54.00
66928;DHT22;59882;45.624;11.698;2023-08-30T11:58:37;24.60;55.50
66928;DHT22;59882;45.624;11.698;2023-08-30T12:01:07;24.90;54.20
66928;DHT22;59882;45.624;11.698;2023-08-30T12:03:33;25.10;53.40
66928;DHT22;59882;45.624;11.698;2023-08-30T12:05:59;25.40;55.70
66928;DHT22;59882;45.624;11.698;2023-08-30T12:08:26;25.60;53.20
66928;DHT22;59882;45.624;11.698;2023-08-30T12:10:53;25.90;54.00
66928;DHT22;59882;45.624;11.698;2023-08-30T12:15:46;26.40;53.00
66928;DHT22;59882;45.624;11.698;2023-08-30T12:18:12;26.70;53.70
66928;DHT22;59882;45.624;11.698;2023-08-30T12:20:38;27.00;53.80
66928;DHT22;59882;45.624;11.698;2023-08-30T12:23:03;27.40;50.30
66928;DHT22;59882;45.624;11.698;2023-08-30T12:25:29;27.70;49.50
66928;DHT22;59882;45.624;11.698;2023-08-30T12:27:56;28.00;50.60
66928;DHT22;59882;45.624;11.698;2023-08-30T12:30:21;28.10;47.70
66928;DHT22;59882;45.624;11.698;2023-08-30T12:32:47;28.40;50.00
66928;DHT22;59882;45.624;11.698;2023-08-30T12:35:13;28.70;50.40
66928;DHT22;59882;45.624;11.698;2023-08-30T12:37:39;28.90;47.10
66928;DHT22;59882;45.624;11.698;2023-08-30T12:40:05;29.30;49.60
66928;DHT22;59882;45.624;11.698;2023-08-30T12:42:32;29.90;45.90
66928;DHT22;59882;45.624;11.698;2023-08-30T12:44:58;30.40;45.10
66928;DHT22;59882;45.624;11.698;2023-08-30T12:47:23;30.50;45.60
66928;DHT22;59882;45.624;11.698;2023-08-30T12:49:49;30.40;40.70
66928;DHT22;59882;45.624;11.698;2023-08-30T12:52:14;30.30;43.30
66928;DHT22;59882;45.624;11.698;2023-08-30T12:54:41;30.20;43.80
66928;DHT22;59882;45.624;11.698;2023-08-30T12:57:07;31.10;44.40
66928;DHT22;59882;45.624;11.698;2023-08-30T12:59:32;32.70;40.60
66928;DHT22;59882;45.624;11.698;2023-08-30T13:01:58;35.00;35.50
66928;DHT22;59882;45.624;11.698;2023-08-30T13:04:24;37.50;31.70
66928;DHT22;59882;45.624;11.698;2023-08-30T13:06:49;39.00;29.80
66928;DHT22;59882;45.624;11.698;2023-08-30T13:09:16;39.80;28.00
66928;DHT22;59882;45.624;11.698;2023-08-30T13:11:42;40.00;27.70
66928;DHT22;59882;45.624;11.698;2023-08-30T13:14:07;39.90;28.40
66928;DHT22;59882;45.624;11.698;2023-08-30T13:16:33;39.30;29.30
66928;DHT22;59882;45.624;11.698;2023-08-30T13:18:59;38.50;28.30
66928;DHT22;59882;45.624;11.698;2023-08-30T13:21:24;37.70;30.30
66928;DHT22;59882;45.624;11.698;2023-08-30T13:23:50;37.00;30.70
66928;DHT22;59882;45.624;11.698;2023-08-30T13:26:15;36.60;32.00
66928;DHT22;59882;45.624;11.698;2023-08-30T13:28:41;37.00;30.40
66928;DHT22;59882;45.624;11.698;2023-08-30T13:31:07;37.30;31.20
66928;DHT22;59882;45.624;11.698;2023-08-30T13:33:33;37.80;29.10
66928;DHT22;59882;45.624;11.698;2023-08-30T13:35:59;38.40;30.80
66928;DHT22;59882;45.624;11.698;2023-08-30T13:38:24;38.50;29.40
66928;DHT22;59882;45.624;11.698;2023-08-30T13:40:50;38.40;29.30
66928;DHT22;59882;45.624;11.698;2023-08-30T13:43:16;38.60;30.20
66928;DHT22;59882;45.624;11.698;2023-08-30T13:45:42;38.70;29.90
66928;DHT22;59882;45.624;11.698;2023-08-30T13:48:12;39.00;28.90
66928;DHT22;59882;45.624;11.698;2023-08-30T13:50:41;39.50;27.50
66928;DHT22;59882;45.624;11.698;2023-08-30T13:53:07;39.60;27.50
66928;DHT22;59882;45.624;11.698;2023-08-30T13:55:32;39.50;28.10
66928;DHT22;59882;45.624;11.698;2023-08-30T13:57:58;39.20;28.50
66928;DHT22;59882;45.624;11.698;2023-08-30T14:00:24;38.70;28.70
66928;DHT22;59882;45.624;11.698;2023-08-30T14:02:50;38.80;28.50
66928;DHT22;59882;45.624;11.698;2023-08-30T14:05:17;38.90;28.60
66928;DHT22;59882;45.624;11.698;2023-08-30T14:07:43;38.80;28.90
66928;DHT22;59882;45.624;11.698;2023-08-30T14:10:09;38.60;27.50
66928;DHT22;59882;45.624;11.698;2023-08-30T14:12:36;37.70;28.90
66928;DHT22;59882;45.624;11.698;2023-08-30T14:15:02;36.50;30.10
66928;DHT22;59882;45.624;11.698;2023-08-30T14:17:28;35.30;31.90
66928;DHT22;59882;45.624;11.698;2023-08-30T14:19:53;34.00;33.60
66928;DHT22;59882;45.624;11.698;2023-08-30T14:22:19;32.90;34.90
66928;DHT22;59882;45.624;11.698;2023-08-30T14:24:45;32.00;35.90
66928;DHT22;59882;45.624;11.698;2023-08-30T14:27:11;31.30;37.60
66928;DHT22;59882;45.624;11.698;2023-08-30T14:29:38;30.50;38.40
66928;DHT22;59882;45.624;11.698;2023-08-30T14:32:03;30.00;39.90
66928;DHT22;59882;45.624;11.698;2023-08-30T14:34:29;29.70;40.40
66928;DHT22;59882;45.624;11.698;2023-08-30T14:36:55;29.40;40.10
66928;DHT22;59882;45.624;11.698;2023-08-30T14:39:21;29.10;41.00
66928;DHT22;59882;45.624;11.698;2023-08-30T14:41:47;28.90;41.50
66928;DHT22;59882;45.624;11.698;2023-08-30T14:44:12;28.80;41.90
66928;DHT22;59882;45.624;11.698;2023-08-30T14:46:38;28.60;42.30
66928;DHT22;59882;45.624;11.698;2023-08-30T14:49:04;28.50;42.80
66928;DHT22;59882;45.624;11.698;2023-08-30T14:51:29;28.50;43.30
66928;DHT22;59882;45.624;11.698;2023-08-30T14:53:55;28.50;43.10
66928;DHT22;59882;45.624;11.698;2023-08-30T14:56:21;28.50;42.90
66928;DHT22;59882;45.624;11.698;2023-08-30T14:58:46;28.60;42.80
66928;DHT22;59882;45.624;11.698;2023-08-30T15:01:15;28.70;41.20
66928;DHT22;59882;45.624;11.698;2023-08-30T15:03:41;28.70;42.00
66928;DHT22;59882;45.624;11.698;2023-08-30T15:06:07;28.50;42.70
66928;DHT22;59882;45.624;11.698;2023-08-30T15:08:32;28.40;42.40
66928;DHT22;59882;45.624;11.698;2023-08-30T15:10:58;28.20;42.60
66928;DHT22;59882;45.624;11.698;2023-08-30T15:13:23;27.90;42.60
66928;DHT22;59882;45.624;11.698;2023-08-30T15:15:50;27.80;43.40
66928;DHT22;59882;45.624;11.698;2023-08-30T15:18:15;27.60;44.20
66928;DHT22;59882;45.624;11.698;2023-08-30T15:20:41;27.50;44.50